Time;durP1;ratioP1;P1;durP2;ratioP2;P2;SDS_P1;SDS_P2;PMS_P1;PMS_P2;Temp;Humidity;BMP_temperature;BMP_pressure;BME280_temperature;BME280_humidity;BME280_pressure;Samples;Min_cycle;Max_cycle;Signal;HPM_P1;HPM_P2
2022/10/04 00:01:12;;;;;;;20.27;6.57;;;;;;;13.54;84.91;102417.97;5002138;28;20038;-53
2022/10/04 00:03:46;;;;;;;14.15;5.90;;;;;;;13.45;85.17;102418.47;5002598;28;20018;-53
2022/10/04 00:06:21;;;;;;;12.07;6.05;;;;;;;13.43;85.46;102414.06;5003610;28;20034;-51
2022/10/04 00:08:55;;;;;;;13.05;6.07;;;;;;;13.43;85.42;102419.25;5007829;28;20751;-54
2022/10/04 00:11:29;;;;;;;10.88;5.55;;;;;;;13.43;85.84;102408.91;5004494;28;20037;-51
2022/10/04 00:14:00;;;;;;;11.30;6.18;;;;;;;13.41;85.60;102396.81;5006553;28;20061;-54
2022/10/04 00:16:30;;;;;;;10.75;6.25;;;;;;;13.40;85.69;102399.31;5006009;28;20065;-54
2022/10/04 00:19:13;;;;;;;12.80;6.00;;;;;;;13.45;85.28;102395.22;5008014;28;20108;-52
2022/10/04 00:21:59;;;;;;;12.27;5.68;;;;;;;13.44;85.50;102392.56;5006501;28;20041;-53
2022/10/04 00:24:30;;;;;;;11.23;5.97;;;;;;;13.39;85.50;102397.53;5007211;28;20057;-53
2022/10/04 00:27:20;;;;;;;12.45;6.30;;;;;;;13.45;85.61;102391.75;5005066;28;20033;-53
2022/10/04 00:30:20;;;;;;;12.40;5.82;;;;;;;13.49;85.38;102388.47;5005804;28;20483;-54
2022/10/04 00:33:00;;;;;;;13.68;6.30;;;;;;;13.46;85.44;102380.59;5004332;28;20076;-49
2022/10/04 00:35:25;;;;;;;;;;;;;;;13.60;84.24;102379.47;5005343;28;20026;-53
2022/10/04 00:37:59;;;;;;;14.55;6.47;;;;;;;13.49;85.20;102378.13;5007568;28;19923;-54
2022/10/04 00:40:32;;;;;;;15.15;6.15;;;;;;;13.44;85.50;102383.13;5004863;28;20030;-54
2022/10/04 00:43:05;;;;;;;18.73;6.53;;;;;;;13.45;85.64;102381.41;5005800;28;20037;-52
2022/10/04 00:45:55;;;;;;;15.55;6.15;;;;;;;13.48;85.24;102377.25;4964962;28;1206126;-52
2022/10/04 00:48:44;;;;;;;15.55;6.95;;;;;;;13.44;85.69;102384.81;5006206;28;20048;-51
2022/10/04 00:51:27;;;;;;;15.00;6.10;;;;;;;13.46;85.66;102378.88;5005267;28;20037;-54
2022/10/04 00:54:02;;;;;;;10.20;6.07;;;;;;;13.39;86.07;102377.75;5005076;28;20387;-53
2022/10/04 00:56:47;;;;;;;11.88;5.95;;;;;;;13.40;86.30;102379.50;5006249;28;20030;-53
2022/10/04 00:59:21;;;;;;;12.30;5.78;;;;;;;13.38;85.60;102370.81;5004749;28;20752;-52
2022/10/04 01:01:51;;;;;;;12.65;6.10;;;;;;;13.33;85.74;102367.16;5005849;28;20029;-53
2022/10/04 01:04:55;;;;;;;14.75;6.47;;;;;;;13.41;85.14;102352.88;5000469;28;20069;-52
2022/10/04 01:07:30;;;;;;;11.70;6.03;;;;;;;13.31;85.56;102343.00;5006061;28;20030;-50
2022/10/04 01:10:01;;;;;;;12.45;5.85;;;;;;;13.30;85.58;102348.97;5006616;28;20037;-53
2022/10/04 01:12:32;;;;;;;11.82;5.97;;;;;;;13.28;85.48;102340.25;5005925;28;20029;-53
2022/10/04 01:15:16;;;;;;;13.10;6.20;;;;;;;13.30;85.42;102343.81;5007830;28;20368;-53
2022/10/04 01:18:19;;;;;;;12.32;6.10;;;;;;;13.27;85.31;102351.41;5004988;28;20095;-54
2022/10/04 01:20:56;;;;;;;12.65;5.88;;;;;;;13.22;85.34;102346.88;5006992;28;20029;-54
2022/10/04 01:23:41;;;;;;;12.55;6.10;;;;;;;13.25;85.13;102344.44;5005643;28;20398;-52
2022/10/04 01:26:37;;;;;;;10.32;5.80;;;;;;;13.24;85.02;102346.16;5007474;28;20022;-53
2022/10/04 01:29:28;;;;;;;14.75;6.75;;;;;;;13.18;84.97;102345.88;5005152;28;20080;-51
2022/10/04 01:31:57;;;;;;;13.32;6.13;;;;;;;13.14;85.10;102338.78;5007482;28;20084;-49
2022/10/04 01:34:23;;;;;;;;;;;;;;;13.32;84.05;102331.81;5004376;28;20505;-51
2022/10/04 01:36:51;;;;;;;11.35;6.05;;;;;;;13.12;84.96;102337.88;5006509;28;19914;-53
2022/10/04 01:39:19;;;;;;;12.85;5.90;;;;;;;13.12;85.45;102335.28;5006541;28;20508;-54
2022/10/04 01:41:53;;;;;;;15.23;6.60;;;;;;;13.13;85.60;102334.47;5007444;28;20026;-53
2022/10/04 01:44:49;;;;;;;12.52;6.20;;;;;;;13.17;85.27;102336.34;5004565;28;20526;-54
2022/10/04 01:47:23;;;;;;;17.80;6.78;;;;;;;13.08;85.76;102318.75;5004710;28;20112;-51
2022/10/04 01:49:51;;;;;;;14.70;6.93;;;;;;;13.06;85.98;102323.00;5006004;28;20469;-53
2022/10/04 01:52:30;;;;;;;13.10;6.80;;;;;;;13.10;85.85;102327.47;5004766;28;20466;-53
2022/10/04 01:55:08;;;;;;;13.88;6.47;;;;;;;13.09;85.86;102322.22;5006091;28;20301;-50
2022/10/04 01:57:43;;;;;;;12.27;6.45;;;;;;;13.10;86.10;102322.31;5005184;28;20025;-53
2022/10/04 02:00:12;;;;;;;12.80;6.35;;;;;;;13.07;85.77;102321.28;5005303;28;20080;-51
2022/10/04 02:02:44;;;;;;;14.13;6.60;;;;;;;13.08;85.66;102303.28;5006817;28;20551;-54
2022/10/04 02:05:14;;;;;;;14.35;6.95;;;;;;;13.05;85.76;102307.44;5006892;28;20383;-53
2022/10/04 02:07:41;;;;;;;12.05;6.43;;;;;;;13.03;85.46;102309.06;5005702;28;20057;-52
2022/10/04 02:10:17;;;;;;;12.38;6.93;;;;;;;13.03;85.39;102294.44;5005597;28;22111;-53
2022/10/04 02:12:46;;;;;;;11.80;6.32;;;;;;;12.99;85.56;102294.28;5007497;28;20478;-53
2022/10/04 02:15:12;;;;;;;;;;;;;;;13.17;84.53;102289.88;5005173;28;20163;-52
2022/10/04 02:17:41;;;;;;;12.45;6.82;;;;;;;12.99;85.52;102273.63;5005258;28;19917;-54
2022/10/04 02:20:13;;;;;;;;;;;;;;;13.16;84.28;102259.66;5005098;28;20037;-53
2022/10/04 02:22:39;;;;;;;13.30;6.97;;;;;;;12.97;85.67;102262.34;5004037;28;20993;-53
2022/10/04 02:25:05;;;;;;;13.52;7.30;;;;;;;12.92;86.29;102262.16;5001339;28;20030;-54
2022/10/04 02:27:31;;;;;;;15.70;7.25;;;;;;;12.94;86.08;102265.69;5005019;28;20037;-53
2022/10/04 02:30:05;;;;;;;12.45;6.45;;;;;;;12.91;86.02;102262.09;5004453;28;20037;-54
2022/10/04 02:35:17;;;;;;;11.48;7.00;;;;;;;12.80;86.18;102262.56;5004732;28;20048;-52
2022/10/04 02:37:42;;;;;;;15.25;7.15;;;;;;;12.81;85.92;102254.00;5005257;28;20039;-54
2022/10/04 02:40:12;;;;;;;13.43;7.18;;;;;;;12.82;85.71;102248.00;5007178;28;20479;-53
2022/10/04 02:42:45;;;;;;;12.55;7.18;;;;;;;12.77;85.56;102249.50;5007808;28;20083;-54
2022/10/04 02:45:31;;;;;;;13.52;7.47;;;;;;;12.81;85.91;102246.25;5005952;28;20061;-53
2022/10/04 02:48:01;;;;;;;14.57;7.30;;;;;;;12.75;85.47;102227.94;5007414;28;20829;-54
2022/10/04 02:50:35;;;;;;;15.45;7.40;;;;;;;12.75;85.76;102230.50;5004752;28;20109;-53
2022/10/04 02:53:10;;;;;;;14.90;7.45;;;;;;;12.73;85.63;102215.75;5006435;28;20111;-53
2022/10/04 02:55:37;;;;;;;10.00;6.82;;;;;;;12.70;85.60;102207.91;5004119;28;20042;-53
2022/10/04 02:58:09;;;;;;;12.93;7.45;;;;;;;12.69;85.58;102209.59;5005432;28;20112;-48
2022/10/04 03:00:49;;;;;;;14.73;7.55;;;;;;;12.68;85.69;102206.94;5004090;28;20054;-54
2022/10/04 03:03:28;;;;;;;12.88;7.40;;;;;;;12.66;85.71;102206.00;5001993;28;20125;-54
2022/10/04 03:05:53;;;;;;;13.43;7.53;;;;;;;12.61;85.41;102210.97;5005688;28;20033;-53
2022/10/04 03:08:19;;;;;;;11.85;7.70;;;;;;;12.59;85.39;102210.91;5003808;28;20034;-53
2022/10/04 03:10:45;;;;;;;14.15;7.35;;;;;;;12.58;85.27;102208.28;5003248;28;20030;-52
2022/10/04 03:13:12;;;;;;;16.02;8.57;;;;;;;12.57;85.61;102212.56;5005625;28;20041;-52
2022/10/04 03:15:38;;;;;;;16.80;8.10;;;;;;;12.58;85.35;102203.13;5005281;28;20052;-53
2022/10/04 03:18:05;;;;;;;13.23;7.82;;;;;;;12.51;84.99;102196.84;5002399;28;20030;-53
2022/10/04 03:20:31;;;;;;;14.70;7.10;;;;;;;12.50;85.28;102199.34;5003818;28;20376;-53
2022/10/04 03:22:56;;;;;;;12.63;7.63;;;;;;;12.50;85.30;102191.63;5004560;28;20041;-54
2022/10/04 03:25:29;;;;;;;13.88;7.70;;;;;;;12.52;85.25;102195.13;5003466;28;20034;-51
2022/10/04 03:28:00;;;;;;;11.95;7.10;;;;;;;12.44;85.35;102179.34;5005329;28;20048;-53
2022/10/04 03:30:26;;;;;;;14.55;7.57;;;;;;;12.45;85.03;102177.63;5004408;28;20129;-54
2022/10/04 03:32:52;;;;;;;16.55;8.00;;;;;;;12.39;85.19;102180.84;5003833;28;20557;-51
2022/10/04 03:35:28;;;;;;;15.13;7.15;;;;;;;12.42;85.41;102182.66;5001596;28;20034;-54
2022/10/04 03:37:56;;;;;;;15.88;8.40;;;;;;;12.38;85.39;102183.34;5004554;28;20022;-51
2022/10/04 03:40:26;;;;;;;18.07;8.10;;;;;;;12.37;85.23;102181.56;5004632;28;20671;-54
2022/10/04 03:42:52;;;;;;;19.88;7.93;;;;;;;12.30;85.06;102178.75;5006093;28;20109;-54
2022/10/04 03:45:19;;;;;;;12.88;8.32;;;;;;;12.29;85.00;102176.09;5004861;28;20096;-50
2022/10/04 03:47:48;;;;;;;15.88;7.93;;;;;;;12.28;85.13;102182.09;5004547;28;20032;-54
2022/10/04 03:50:28;;;;;;;15.77;7.83;;;;;;;12.30;84.85;102178.75;5004680;28;20034;-54
2022/10/04 03:53:03;;;;;;;14.07;7.60;;;;;;;12.30;84.44;102168.44;5003337;28;20442;-54
2022/10/04 03:55:37;;;;;;;16.05;8.25;;;;;;;12.29;84.71;102164.09;5001310;28;20403;-53
2022/10/04 03:58:04;;;;;;;13.88;7.90;;;;;;;12.24;84.76;102163.00;5001791;28;20065;-53
2022/10/04 04:00:30;;;;;;;16.58;8.13;;;;;;;12.21;84.98;102168.06;5002760;28;20042;-53
2022/10/04 04:02:59;;;;;;;14.80;8.60;;;;;;;12.21;84.75;102167.19;5003032;28;22214;-52
2022/10/04 04:05:34;;;;;;;13.73;8.07;;;;;;;12.23;84.75;102161.25;5005627;28;20026;-53
2022/10/04 04:08:04;;;;;;;12.98;8.30;;;;;;;12.15;84.68;102160.06;5001902;28;20057;-51
2022/10/04 04:10:34;;;;;;;14.88;8.40;;;;;;;12.16;85.02;102169.56;5001178;28;20025;-53
2022/10/04 04:13:02;;;;;;;21.38;9.23;;;;;;;12.14;84.64;102166.03;5002826;28;20025;-53
2022/10/04 04:15:30;;;;;;;16.98;8.57;;;;;;;12.15;84.82;102161.78;5004948;28;20034;-54
2022/10/04 04:18:01;;;;;;;15.48;8.55;;;;;;;12.17;84.78;102166.16;5002924;28;20038;-53
2022/10/04 04:20:40;;;;;;;14.18;8.57;;;;;;;12.16;84.52;102168.69;5002689;28;20061;-53
2022/10/04 04:23:14;;;;;;;14.90;8.05;;;;;;;12.20;84.50;102168.88;5007286;28;20084;-50
2022/10/04 04:25:49;;;;;;;21.10;9.13;;;;;;;12.15;84.55;102165.22;5008852;28;20391;-53
2022/10/04 04:28:21;;;;;;;13.40;8.48;;;;;;;12.13;84.65;102163.38;5005497;28;20026;-54
2022/10/04 04:30:50;;;;;;;17.35;8.20;;;;;;;12.09;84.79;102159.81;5006558;28;20037;-53
2022/10/04 04:33:42;;;;;;;12.32;7.68;;;;;;;12.16;84.29;102159.25;5004647;28;20030;-49
2022/10/04 04:36:13;;;;;;;14.65;8.30;;;;;;;12.07;84.80;102158.84;5009116;28;20113;-53
2022/10/04 04:39:33;;;;;;;13.68;7.55;;;;;;;12.00;84.75;102157.69;5004996;28;20021;-54
2022/10/04 04:41:26;;;;;;;16.80;8.00;;;;;;;12.02;84.74;102156.09;5003031;28;20061;-53
2022/10/04 04:43:52;;;;;;;15.90;8.57;;;;;;;11.96;84.66;102153.25;5006884;28;20486;-53
2022/10/04 04:46:17;;;;;;;16.88;8.13;;;;;;;11.98;85.03;102158.47;5008342;28;20303;-51
2022/10/04 04:48:46;;;;;;;16.52;8.10;;;;;;;11.99;85.00;102155.06;5007483;28;20042;-54
2022/10/04 04:51:19;;;;;;;17.17;8.13;;;;;;;12.02;85.23;102155.22;5007331;28;20034;-54
2022/10/04 04:53:46;;;;;;;12.93;8.27;;;;;;;11.95;85.09;102148.00;5010533;28;20029;-53
2022/10/04 04:56:22;;;;;;;16.58;8.20;;;;;;;11.95;85.47;102143.75;5009792;28;20037;-51
2022/10/04 04:58:50;;;;;;;15.85;7.82;;;;;;;11.94;85.11;102147.13;5008128;28;20037;-54
2022/10/04 05:01:30;;;;;;;15.77;7.65;;;;;;;11.98;85.63;102148.16;5009766;28;20053;-52
2022/10/04 05:04:08;;;;;;;11.63;7.72;;;;;;;11.98;85.42;102154.19;5008691;28;20481;-53
2022/10/04 05:06:37;;;;;;;17.38;8.35;;;;;;;11.96;84.91;102152.38;5004945;28;20460;-53
2022/10/04 05:09:04;;;;;;;13.57;8.17;;;;;;;11.95;84.92;102148.00;5011015;28;20103;-53
2022/10/04 05:11:37;;;;;;;16.50;7.57;;;;;;;11.93;84.93;102150.53;5012604;28;20033;-53
2022/10/04 05:14:13;;;;;;;15.65;8.15;;;;;;;11.94;84.87;102152.28;5007993;28;20066;-53
2022/10/04 05:16:46;;;;;;;12.63;8.05;;;;;;;11.90;84.95;102139.22;5009489;28;20021;-50
2022/10/04 05:19:24;;;;;;;13.93;7.97;;;;;;;11.94;84.33;102138.50;5008881;28;20025;-53
2022/10/04 05:21:53;;;;;;;17.27;8.02;;;;;;;11.84;84.62;102131.22;5009995;28;20034;-53
2022/10/04 05:24:28;;;;;;;11.07;7.57;;;;;;;11.84;84.69;102134.69;5005176;28;21601;-53
2022/10/04 05:27:06;;;;;;;12.27;7.80;;;;;;;11.84;84.54;102136.38;5012802;28;20876;-54
2022/10/04 05:29:38;;;;;;;13.55;8.25;;;;;;;11.81;84.53;102140.56;5006459;28;20103;-53
2022/10/04 05:32:25;;;;;;;12.60;7.43;;;;;;;11.87;84.28;102151.97;5007143;28;20032;-53
2022/10/04 05:34:53;;;;;;;15.38;8.25;;;;;;;11.78;84.56;102152.41;5005275;28;20022;-53
2022/10/04 05:37:24;;;;;;;17.13;8.00;;;;;;;11.75;84.58;102150.56;5007646;28;20105;-50
2022/10/04 05:40:05;;;;;;;11.65;7.35;;;;;;;11.71;84.38;102147.78;5007967;28;20018;-53
2022/10/04 05:42:43;;;;;;;11.82;7.20;;;;;;;11.75;84.72;102150.56;5005188;28;20080;-53
2022/10/04 05:45:17;;;;;;;13.47;7.60;;;;;;;11.75;84.72;102150.56;5007244;28;20517;-53
2022/10/04 05:47:44;;;;;;;14.05;7.80;;;;;;;11.71;84.27;102150.38;5007440;28;20120;-50
2022/10/04 05:50:16;;;;;;;14.38;8.05;;;;;;;11.67;84.79;102146.78;5007118;28;20025;-51
2022/10/04 05:52:42;;;;;;;12.35;7.88;;;;;;;11.66;84.55;102160.50;5010410;28;20034;-52
2022/10/04 05:55:27;;;;;;;14.82;8.10;;;;;;;11.75;84.44;102158.31;5005027;28;20028;-53
2022/10/04 05:58:43;;;;;;;16.00;8.35;;;;;;;11.77;84.31;102167.00;5004966;28;20154;-52
2022/10/04 06:01:33;;;;;;;18.45;7.60;;;;;;;11.73;84.49;102162.53;5000739;28;20044;-50
2022/10/04 06:04:33;;;;;;;13.55;7.60;;;;;;;11.72;84.53;102165.91;5004152;28;20034;-52
2022/10/04 06:07:11;;;;;;;18.10;7.65;;;;;;;11.73;84.64;102162.53;5005343;28;20034;-51
2022/10/04 06:10:00;;;;;;;15.63;8.50;;;;;;;11.72;84.71;102168.50;5006595;28;20037;-53
2022/10/04 06:12:41;;;;;;;13.70;8.07;;;;;;;11.69;84.31;102165.75;5005644;28;20108;-53
2022/10/04 06:15:43;;;;;;;17.58;8.27;;;;;;;11.69;84.67;102160.59;5005811;28;20148;-49
2022/10/04 06:18:21;;;;;;;20.38;8.13;;;;;;;11.67;84.73;102171.69;5005245;28;20030;-51
2022/10/04 06:21:05;;;;;;;19.35;8.45;;;;;;;11.74;84.61;102174.59;5007299;28;20128;-51
2022/10/04 06:23:36;;;;;;;53.78;10.85;;;;;;;11.60;85.18;102167.94;5004525;28;20032;-52
2022/10/04 06:26:11;;;;;;;27.98;8.52;;;;;;;11.65;85.10;102162.97;5005263;28;20036;-54
2022/10/04 06:28:42;;;;;;;50.30;10.50;;;;;;;11.65;85.31;102169.03;5003024;28;20160;-52
2022/10/04 06:31:46;;;;;;;66.35;11.80;;;;;;;11.69;85.33;102157.16;5008045;28;20509;-53
2022/10/04 06:34:28;;;;;;;33.58;9.10;;;;;;;11.60;85.57;102160.22;4990536;28;20450;-54
2022/10/04 06:37:12;;;;;;;23.52;7.53;;;;;;;11.69;85.50;102155.47;5004809;28;20487;-50
2022/10/04 06:39:37;;;;;;;33.90;8.43;;;;;;;11.65;85.40;102155.25;5004715;28;20022;-53
2022/10/04 06:42:32;;;;;;;23.73;7.70;;;;;;;11.68;85.28;102161.44;5007293;28;20037;-50
2022/10/04 06:45:37;;;;;;;20.17;7.10;;;;;;;11.74;84.91;102153.09;5000665;28;20038;-54
2022/10/04 06:48:20;;;;;;;21.52;7.00;;;;;;;11.71;85.06;102150.38;5005989;28;20032;-54
2022/10/04 06:51:18;;;;;;;13.68;6.25;;;;;;;11.74;85.04;102142.78;5007675;28;20485;-50
2022/10/04 06:54:04;;;;;;;13.00;6.50;;;;;;;11.75;84.82;102149.69;5003164;28;20022;-54
2022/10/04 06:56:42;;;;;;;13.05;6.13;;;;;;;11.76;84.83;102156.59;5005836;28;20033;-58
2022/10/04 06:59:36;;;;;;;15.48;5.72;;;;;;;11.73;84.96;102153.91;5003783;28;20013;-55
2022/10/04 07:02:13;;;;;;;15.63;6.43;;;;;;;11.72;84.80;102145.31;5005499;28;20056;-54
2022/10/04 07:04:48;;;;;;;14.50;5.45;;;;;;;11.69;84.86;102140.00;5004407;28;20021;-55
2022/10/04 07:07:34;;;;;;;12.80;5.90;;;;;;;11.71;85.22;102140.06;5005354;28;20486;-52
2022/10/04 07:10:21;;;;;;;11.32;5.35;;;;;;;11.76;84.72;102146.31;5003230;28;21064;-54
2022/10/04 07:13:13;;;;;;;11.15;5.28;;;;;;;11.78;84.63;102142.13;5005155;28;20025;-53
2022/10/04 07:15:48;;;;;;;11.15;5.30;;;;;;;11.72;84.79;102135.00;4971910;28;20037;-55
2022/10/04 07:18:21;;;;;;;11.98;5.35;;;;;;;11.71;84.77;102137.47;5004417;28;20053;-55
2022/10/04 07:20:49;;;;;;;15.32;5.40;;;;;;;11.73;84.88;102138.44;5005723;28;20022;-55
2022/10/04 07:23:24;;;;;;;9.82;5.07;;;;;;;11.76;84.72;102131.72;5019371;28;20045;-55
2022/10/04 07:25:58;;;;;;;15.82;5.40;;;;;;;11.74;85.13;102128.19;5002494;28;20482;-55
2022/10/04 07:31:22;;;;;;;11.32;5.93;;;;;;;11.88;84.93;102144.28;5004330;28;20087;-55
2022/10/04 07:34:17;;;;;;;12.77;5.22;;;;;;;11.92;84.88;102137.56;5005424;28;20026;-56
2022/10/04 07:36:47;;;;;;;11.40;5.20;;;;;;;11.89;85.00;102135.75;5006306;28;20164;-55
2022/10/04 07:39:23;;;;;;;10.70;5.22;;;;;;;11.92;85.59;102142.72;5006290;28;20031;-55
2022/10/04 07:41:52;;;;;;;14.27;5.47;;;;;;;11.92;85.69;102146.19;5005975;28;20503;-55
2022/10/04 07:44:17;;;;;;;;;;;;;;;12.11;84.96;102153.00;5010755;28;20133;-56
2022/10/04 07:46:57;;;;;;;12.57;5.35;;;;;;;12.07;85.66;102158.84;5006315;28;19991;-53
2022/10/04 07:49:24;;;;;;;13.65;5.93;;;;;;;12.07;85.36;102151.09;5001445;28;20037;-56
2022/10/04 07:52:11;;;;;;;11.85;5.97;;;;;;;12.22;85.46;102150.88;5007847;28;20618;-56
2022/10/04 07:54:44;;;;;;;12.07;6.07;;;;;;;12.33;85.29;102147.06;5004953;28;20956;-57
2022/10/04 07:57:10;;;;;;;12.27;6.10;;;;;;;12.48;85.02;102144.22;5004679;28;20026;-55
2022/10/04 07:59:54;;;;;;;11.52;6.22;;;;;;;12.68;84.16;102134.69;5004966;28;20099;-56
2022/10/04 08:02:26;;;;;;;13.20;6.03;;;;;;;12.93;84.05;102127.09;5004441;28;20104;-54
2022/10/04 08:04:57;;;;;;;11.45;5.93;;;;;;;13.18;83.30;102136.66;5002894;28;20030;-55
2022/10/04 08:07:36;;;;;;;9.50;5.60;;;;;;;13.40;81.50;102134.06;5005616;28;20030;-55
2022/10/04 08:10:27;;;;;;;13.65;5.85;;;;;;;13.64;80.45;102136.66;5002627;28;20037;-56
2022/10/04 08:13:30;;;;;;;10.27;5.15;;;;;;;13.94;80.37;102126.50;5004046;28;20095;-56
2022/10/04 08:16:09;;;;;;;11.90;5.50;;;;;;;14.19;79.18;102124.75;5004944;28;20057;-57
2022/10/04 08:18:42;;;;;;;12.23;4.80;;;;;;;14.48;78.48;102120.56;4999900;28;20029;-58
2022/10/04 08:21:13;;;;;;;15.68;4.50;;;;;;;14.71;77.00;102118.72;5001231;28;20076;-49
2022/10/04 08:24:09;;;;;;;12.73;5.03;;;;;;;14.95;76.96;102122.03;5003432;28;20513;-56
2022/10/04 08:26:56;;;;;;;9.10;4.25;;;;;;;15.14;74.97;102120.00;5001034;28;20113;-57
2022/10/04 08:29:49;;;;;;;9.43;4.15;;;;;;;15.41;75.29;102123.41;5005529;28;20049;-56
2022/10/04 08:32:53;;;;;;;10.20;4.40;;;;;;;15.69;74.98;102129.38;5019114;28;20038;-55
2022/10/04 08:35:32;;;;;;;8.38;4.30;;;;;;;15.71;71.90;102127.69;5002969;28;20482;-55
2022/10/04 08:38:04;;;;;;;11.10;4.25;;;;;;;15.70;73.17;102131.13;5002645;28;20057;-55
2022/10/04 08:41:03;;;;;;;8.52;4.07;;;;;;;15.84;72.97;102134.09;5006035;28;20033;-54
2022/10/04 08:43:51;;;;;;;13.13;4.15;;;;;;;15.87;71.74;102136.75;5006771;28;20060;-56
2022/10/04 08:46:45;;;;;;;10.65;4.10;;;;;;;16.03;72.85;102126.84;5004412;28;20470;-55
2022/10/04 08:49:38;;;;;;;9.30;4.03;;;;;;;16.01;72.18;102140.59;5007280;28;20042;-56
2022/10/04 08:52:16;;;;;;;12.68;4.20;;;;;;;16.06;72.18;102144.19;5007085;28;20048;-53
2022/10/04 08:55:05;;;;;;;8.30;4.25;;;;;;;16.06;70.26;102137.28;5006881;28;20037;-55
2022/10/04 08:58:14;;;;;;;10.95;4.70;;;;;;;16.14;71.66;102136.59;5006260;28;20401;-55
2022/10/04 09:00:55;;;;;;;15.82;4.88;;;;;;;16.05;71.15;102132.94;5002276;28;20612;-55
2022/10/04 09:03:56;;;;;;;10.68;4.97;;;;;;;16.09;71.39;102121.81;5019012;28;20372;-54
2022/10/04 09:06:58;;;;;;;20.42;5.40;;;;;;;16.14;72.16;102132.31;5002298;28;20026;-55
2022/10/04 09:09:48;;;;;;;13.25;5.00;;;;;;;16.14;70.20;102140.09;5004915;28;20029;-54
2022/10/04 09:12:19;;;;;;;9.05;4.80;;;;;;;16.15;70.61;102140.97;5005766;28;20785;-56
2022/10/04 09:15:10;;;;;;;8.35;4.97;;;;;;;16.20;71.49;102141.94;5005535;28;20022;-54
2022/10/04 09:17:52;;;;;;;7.32;4.93;;;;;;;16.17;70.65;102134.09;5002502;28;20095;-54
2022/10/04 09:20:48;;;;;;;10.18;4.93;;;;;;;16.21;71.62;102133.34;5004728;28;20025;-56
2022/10/04 09:23:22;;;;;;;14.32;5.88;;;;;;;16.23;71.56;102134.25;5007188;28;20034;-56
2022/10/04 09:26:32;;;;;;;17.73;5.82;;;;;;;16.32;71.37;102132.75;5005994;28;20474;-55
2022/10/04 09:29:22;;;;;;;17.10;6.00;;;;;;;16.33;71.03;102121.53;5006411;28;20053;-56
2022/10/04 09:32:05;;;;;;;13.50;5.82;;;;;;;16.41;70.87;102115.66;5005953;28;20022;-55
2022/10/04 09:34:58;;;;;;;13.25;5.93;;;;;;;16.45;70.39;102113.16;5007342;28;20470;-55
2022/10/04 09:37:33;;;;;;;14.60;6.28;;;;;;;16.46;69.78;102114.91;5008497;28;20022;-54
2022/10/04 09:40:10;;;;;;;10.20;5.90;;;;;;;16.48;70.47;102110.63;5008143;28;20021;-55
2022/10/04 09:42:57;;;;;;;11.63;6.35;;;;;;;16.52;70.73;102103.81;5006272;28;20046;-55
2022/10/04 09:45:49;;;;;;;13.00;6.05;;;;;;;16.60;71.02;102095.34;5006096;28;20049;-55
2022/10/04 09:48:29;;;;;;;12.05;6.07;;;;;;;16.66;70.54;102098.91;4984307;28;20482;-53
2022/10/04 09:51:12;;;;;;;12.43;6.25;;;;;;;16.70;69.31;102106.84;5007044;28;20029;-55
2022/10/04 09:53:50;;;;;;;12.07;5.95;;;;;;;16.75;68.12;102106.97;5004694;28;20029;-53
2022/10/04 09:56:49;;;;;;;15.32;6.70;;;;;;;16.79;69.34;102121.75;5006026;28;20698;-55
2022/10/04 09:59:26;;;;;;;10.98;6.45;;;;;;;16.79;68.29;102119.16;5006680;28;20018;-55
2022/10/04 10:02:29;;;;;;;12.98;5.97;;;;;;;16.84;68.53;102101.97;5007415;28;20033;-55
2022/10/04 10:05:23;;;;;;;9.77;6.05;;;;;;;16.92;68.89;102105.59;5004936;28;20379;-55
2022/10/04 10:08:16;;;;;;;16.23;6.13;;;;;;;16.99;69.20;102109.22;4985174;28;20038;-54
2022/10/04 10:14:04;;;;;;;11.50;4.90;;;;;;;17.13;67.47;102093.06;5006210;28;20204;-54
2022/10/04 10:16:38;;;;;;;17.08;5.00;;;;;;;17.21;67.79;102097.53;5006660;28;21933;-53
2022/10/04 10:19:27;;;;;;;18.92;5.78;;;;;;;17.22;67.84;102092.38;5005735;28;20509;-55
2022/10/04 10:22:13;;;;;;;24.83;6.07;;;;;;;17.30;67.57;102088.22;5006506;28;20030;-54
2022/10/04 10:25:02;;;;;;;15.18;5.55;;;;;;;17.38;67.27;102086.63;5005645;28;20153;-54
2022/10/04 10:28:10;;;;;;;11.25;5.20;;;;;;;17.45;67.62;102086.75;5006174;28;20040;-54
2022/10/04 10:31:23;;;;;;;12.35;5.43;;;;;;;17.55;66.87;102079.16;5003720;28;20030;-54
2022/10/04 10:34:22;;;;;;;11.55;4.93;;;;;;;17.61;66.86;102083.59;4997469;28;20534;-51
2022/10/04 10:37:07;;;;;;;13.13;5.35;;;;;;;17.73;65.90;102083.00;5006318;28;20586;-54
2022/10/04 10:39:48;;;;;;;8.60;4.85;;;;;;;17.79;66.63;102083.97;5006132;28;20037;-55
2022/10/04 10:42:42;;;;;;;11.50;4.78;;;;;;;17.88;66.45;102081.50;5006214;28;20112;-53
2022/10/04 10:45:31;;;;;;;11.73;5.28;;;;;;;17.99;65.82;102088.63;5003660;28;20115;-54
2022/10/04 10:48:03;;;;;;;;;;;;;;;18.09;65.67;102093.16;5009925;28;20037;-54
2022/10/04 10:51:01;;;;;;;9.65;4.53;;;;;;;18.25;63.73;102102.94;5008418;28;20703;-54
2022/10/04 10:54:20;;;;;;;9.40;4.60;;;;;;;18.47;65.59;102106.78;5007250;28;20029;-54
2022/10/04 10:56:55;;;;;;;7.97;4.55;;;;;;;18.62;61.54;102093.09;4946194;28;20031;-56
2022/10/04 10:59:59;;;;;;;12.50;5.30;;;;;;;18.64;63.27;102092.28;5003983;28;20037;-54
2022/10/04 11:02:48;;;;;;;10.68;4.80;;;;;;;18.68;61.99;102077.59;5005624;28;20530;-54
2022/10/04 11:05:26;;;;;;;8.63;4.50;;;;;;;18.74;62.00;102081.16;5020706;28;20034;-55
2022/10/04 11:08:15;;;;;;;10.75;4.60;;;;;;;18.95;60.79;102087.53;5004224;28;20040;-53
2022/10/04 11:11:05;;;;;;;10.23;4.45;;;;;;;19.16;60.71;102074.75;5001627;28;20042;-52
2022/10/04 11:14:01;;;;;;;10.77;4.32;;;;;;;19.45;59.45;102068.97;5003502;28;20054;-55
2022/10/04 11:16:46;;;;;;;7.00;4.20;;;;;;;19.66;58.50;102071.00;5001465;28;20449;-55
2022/10/04 11:19:33;;;;;;;9.50;4.30;;;;;;;19.85;57.39;102070.28;5002679;28;20045;-54
2022/10/04 11:22:23;;;;;;;7.18;3.85;;;;;;;20.09;57.72;102062.66;5006746;28;20482;-56
2022/10/04 11:25:06;;;;;;;9.05;4.28;;;;;;;20.20;55.99;102059.25;5003787;28;20049;-53
2022/10/04 11:27:52;;;;;;;12.20;4.18;;;;;;;20.39;55.62;102055.03;5005783;28;20611;-52
2022/10/04 11:30:23;;;;;;;11.65;3.92;;;;;;;20.60;55.71;102040.38;5007050;28;20030;-56
2022/10/04 11:33:12;;;;;;;7.97;3.72;;;;;;;20.79;55.03;102037.84;5005214;28;20025;-55
2022/10/04 11:36:02;;;;;;;13.60;3.90;;;;;;;20.92;54.62;102037.03;5002104;28;20037;-54
2022/10/04 11:38:56;;;;;;;8.30;4.00;;;;;;;21.19;54.42;102040.63;5002872;28;20051;-55
2022/10/04 11:41:47;;;;;;;8.18;3.75;;;;;;;21.18;52.03;102039.78;5001854;28;20106;-55
2022/10/04 11:44:45;;;;;;;9.63;4.70;;;;;;;21.32;52.72;102030.25;5000349;28;20021;-54
2022/10/04 11:47:53;;;;;;;7.47;4.07;;;;;;;21.47;53.14;102026.75;5001417;28;20609;-55
2022/10/04 11:50:27;;;;;;;;;;;;;;;21.61;53.74;102017.19;5003162;28;20033;-55
2022/10/04 11:52:53;;;;;;;7.32;3.72;;;;;;;21.08;51.69;102017.06;5003052;28;19914;-55
2022/10/04 11:55:36;;;;;;;8.80;3.38;;;;;;;21.02;54.03;102019.66;5001511;28;20033;-55
2022/10/04 11:58:30;;;;;;;8.40;3.22;;;;;;;20.90;53.58;102023.09;5015702;28;20038;-54
2022/10/04 12:01:39;;;;;;;7.57;3.10;;;;;;;20.88;53.39;102025.72;5004288;28;20022;-52
2022/10/04 12:04:04;;;;;;;;;;;;;;;21.04;53.18;102026.63;5005515;28;20022;-52
2022/10/04 12:06:36;;;;;;;7.67;3.30;;;;;;;20.72;53.07;102018.66;5005171;28;19928;-53
2022/10/04 12:09:30;;;;;;;11.35;3.42;;;;;;;20.62;52.90;102027.31;5006660;28;20297;-54
2022/10/04 12:12:35;;;;;;;11.45;3.47;;;;;;;20.50;53.47;102029.88;5008967;28;20531;-56
2022/10/04 12:15:22;;;;;;;8.68;3.22;;;;;;;20.33;54.92;102025.41;5002895;28;20084;-53
2022/10/04 12:17:47;;;;;;;10.93;3.50;;;;;;;20.08;54.94;102019.16;5006306;28;20044;-53
2022/10/04 12:20:40;;;;;;;8.60;3.25;;;;;;;20.01;55.75;102014.72;5006601;28;20562;-55
2022/10/04 12:23:32;;;;;;;8.00;3.13;;;;;;;20.00;56.73;102009.50;5006270;28;20037;-53
2022/10/04 12:26:31;;;;;;;7.88;2.72;;;;;;;19.96;56.50;102008.63;4989646;28;20107;-55